createdAt,value
2018-06-03T00:00:29.070Z,18.50
2018-06-03T00:02:58.804Z,18.40
2018-06-03T00:05:28.127Z,18.40
2018-06-03T00:07:58.619Z,18.30
2018-06-03T00:10:28.591Z,18.30
2018-06-03T00:12:58.306Z,18.30
2018-06-03T00:15:27.996Z,18.20
2018-06-03T00:17:57.979Z,18.20
2018-06-03T00:20:38.727Z,18.10
2018-06-03T00:23:08.419Z,18.10
2018-06-03T00:25:37.764Z,18.10
2018-06-03T00:28:07.459Z,18.00
2018-06-03T00:30:37.124Z,18.00
2018-06-03T00:33:06.820Z,18.00
2018-06-03T00:35:47.618Z,18.00
2018-06-03T00:38:17.311Z,18.00
2018-06-03T00:40:46.991Z,18.00
2018-06-03T00:43:17.451Z,17.90
2018-06-03T00:45:47.132Z,17.90
2018-06-03T00:48:17.594Z,17.80
2018-06-03T00:50:47.266Z,17.70
2018-06-03T00:53:17.727Z,17.70
2018-06-03T00:55:47.399Z,17.70
2018-06-03T00:58:17.867Z,17.70
2018-06-03T01:00:47.575Z,17.70
2018-06-03T01:03:17.267Z,17.70
2018-06-03T01:05:47.703Z,17.60
2018-06-03T01:08:17.414Z,17.60
2018-06-03T01:10:48.139Z,17.60
2018-06-03T01:13:18.594Z,17.60
2018-06-03T01:15:48.264Z,17.50
2018-06-03T01:18:18.719Z,17.60
2018-06-03T01:20:48.407Z,17.50
2018-06-03T01:23:18.113Z,17.60
2018-06-03T01:25:47.804Z,17.50
2018-06-03T01:28:18.267Z,17.50
2018-06-03T01:30:47.943Z,17.40
2018-06-03T01:33:18.406Z,17.40
2018-06-03T01:35:48.083Z,17.40
2018-06-03T01:38:18.539Z,17.40
2018-06-03T01:40:48.245Z,17.30
2018-06-03T01:43:17.914Z,17.40
2018-06-03T01:45:47.616Z,17.40
2018-06-03T01:48:17.294Z,17.30
2018-06-03T01:50:46.990Z,17.30
2018-06-03T01:53:16.651Z,17.30
2018-06-03T01:55:46.341Z,17.30
2018-06-03T01:58:16.024Z,17.20
2018-06-03T02:00:45.722Z,17.10
2018-06-03T02:03:15.401Z,17.20
2018-06-03T02:05:45.862Z,17.10
2018-06-03T02:08:15.539Z,17.10
2018-06-03T02:10:45.994Z,17.10
2018-06-03T02:13:15.666Z,17.00
2018-06-03T02:15:45.351Z,17.00
2018-06-03T02:18:15.019Z,17.00
2018-06-03T02:20:44.712Z,17.00
2018-06-03T02:23:14.403Z,17.00
2018-06-03T02:25:44.858Z,16.90
2018-06-03T02:28:14.535Z,16.90
2018-06-03T02:30:44.989Z,16.80
2018-06-03T02:33:14.667Z,16.70
2018-06-03T02:35:45.131Z,16.80
2018-06-03T02:38:14.813Z,16.80
2018-06-03T02:40:45.277Z,16.80
2018-06-03T02:43:14.963Z,16.70
2018-06-03T02:45:45.419Z,16.70
2018-06-03T02:48:15.091Z,16.70
2018-06-03T02:50:45.551Z,16.70
2018-06-03T02:53:15.232Z,16.60
2018-06-03T02:55:45.698Z,16.70
2018-06-03T02:58:15.359Z,16.70
2018-06-03T03:00:45.842Z,16.60
2018-06-03T03:03:16.300Z,16.50
2018-06-03T03:05:45.987Z,16.50
2018-06-03T03:08:15.674Z,16.50
2018-06-03T03:10:45.383Z,16.50
2018-06-03T03:13:15.059Z,16.50
2018-06-03T03:15:44.758Z,16.50
2018-06-03T03:18:15.258Z,16.50
2018-06-03T03:20:45.732Z,16.50
2018-06-03T03:23:15.444Z,16.40
2018-06-03T03:25:45.124Z,16.50
2018-06-03T03:28:14.844Z,16.40
2018-06-03T03:30:45.279Z,16.40
2018-06-03T03:33:15.775Z,16.40
2018-06-03T03:35:46.236Z,16.40
2018-06-03T03:38:15.939Z,16.30
2018-06-03T03:40:46.391Z,16.30
2018-06-03T03:43:16.082Z,16.30
2018-06-03T03:45:45.769Z,16.40
2018-06-03T03:48:15.466Z,16.30
2018-06-03T03:50:45.940Z,16.40
2018-06-03T03:53:15.635Z,16.30
2018-06-03T03:55:46.075Z,16.30
2018-06-03T03:58:15.771Z,16.30
2018-06-03T04:00:46.215Z,16.30
2018-06-03T04:03:15.593Z,16.20
2018-06-03T04:05:45.543Z,16.30
2018-06-03T04:08:15.243Z,16.30
2018-06-03T04:10:44.995Z,16.30
2018-06-03T04:13:51.675Z,16.20
2018-06-03T04:16:21.403Z,16.30
2018-06-03T04:18:51.079Z,16.20
2018-06-03T04:21:20.779Z,16.20
2018-06-03T04:23:50.770Z,16.20
2018-06-03T04:26:20.506Z,16.30
2018-06-03T04:28:50.190Z,16.30
2018-06-03T04:31:19.875Z,16.40
2018-06-03T04:33:49.563Z,16.40
2018-06-03T04:36:19.244Z,16.40
2018-06-03T04:38:49.237Z,16.40
2018-06-03T04:41:19.293Z,16.40
2018-06-03T04:43:49.191Z,16.50
2018-06-03T04:46:18.859Z,16.50
2018-06-03T04:48:48.647Z,16.50
2018-06-03T04:51:18.483Z,16.50
2018-06-03T04:53:48.191Z,16.50
2018-06-03T04:56:18.275Z,16.60
2018-06-03T04:58:47.958Z,16.60
2018-06-03T05:01:17.607Z,16.70
2018-06-03T05:03:47.295Z,16.70
2018-06-03T05:06:16.987Z,16.70
2018-06-03T05:08:46.867Z,16.70
2018-06-03T05:11:16.567Z,16.70
2018-06-03T05:13:46.258Z,16.80
2018-06-03T05:16:16.209Z,16.90
2018-06-03T05:18:45.900Z,17.00
2018-06-03T05:21:15.572Z,17.10
2018-06-03T05:23:45.247Z,17.20
2018-06-03T05:26:14.984Z,17.30
2018-06-03T05:28:44.782Z,17.30
2018-06-03T05:31:14.451Z,17.40
2018-06-03T05:36:13.415Z,17.60
2018-06-03T05:38:43.111Z,17.70
2018-06-03T05:41:12.787Z,17.80
2018-06-03T05:43:42.480Z,17.90
2018-06-03T05:46:12.143Z,18.10
2018-06-03T05:48:41.875Z,18.50
2018-06-03T05:51:11.560Z,19.00
2018-06-03T05:53:41.244Z,19.60
2018-06-03T05:56:11.246Z,20.00
2018-06-03T05:58:40.958Z,20.20
2018-06-03T06:01:10.627Z,20.30
2018-06-03T06:03:40.775Z,20.40
2018-06-03T06:06:10.457Z,20.70
2018-06-03T06:08:40.204Z,21.10
2018-06-03T06:11:09.874Z,21.30
2018-06-03T06:13:39.540Z,21.50
2018-06-03T06:16:09.224Z,21.50
2018-06-03T06:18:38.887Z,21.60
2018-06-03T06:21:08.568Z,21.80
2018-06-03T06:23:38.219Z,22.00
2018-06-03T06:26:07.927Z,22.20
2018-06-03T06:28:37.590Z,22.30
2018-06-03T06:31:07.275Z,22.20
2018-06-03T06:33:37.023Z,22.10
2018-06-03T06:36:06.695Z,21.90
2018-06-03T06:41:05.670Z,21.60
2018-06-03T06:43:35.450Z,21.30
2018-06-03T06:46:05.270Z,21.10
2018-06-03T06:48:35.322Z,21.10
2018-06-03T06:51:05.019Z,21.20
2018-06-03T06:53:34.734Z,21.40
2018-06-03T06:56:06.611Z,21.50
2018-06-03T06:58:36.427Z,21.50
2018-06-03T07:01:06.123Z,21.50
2018-06-03T07:03:35.851Z,21.50
2018-06-03T07:06:05.604Z,21.50
2018-06-03T07:08:35.431Z,21.80
2018-06-03T07:11:05.166Z,22.00
2018-06-03T07:13:35.364Z,21.80
2018-06-03T07:16:05.259Z,21.90
2018-06-03T07:18:35.029Z,22.30
2018-06-03T07:21:04.842Z,22.90
2018-06-03T07:23:34.547Z,23.40
2018-06-03T07:26:04.737Z,23.60
2018-06-03T07:28:36.233Z,23.80
2018-06-03T07:31:07.180Z,24.00
2018-06-03T07:33:37.422Z,23.80
2018-06-03T07:36:07.204Z,23.60
2018-06-03T07:38:37.315Z,23.50
2018-06-03T07:41:07.006Z,23.80
2018-06-03T07:46:06.455Z,24.00
2018-06-03T07:48:36.622Z,24.20
2018-06-03T07:51:06.688Z,24.30
2018-06-03T07:53:36.568Z,24.10
2018-06-03T07:56:06.272Z,24.30
2018-06-03T07:58:35.943Z,24.60
2018-06-03T08:01:05.710Z,24.80
2018-06-03T08:03:36.103Z,25.00
2018-06-03T08:06:06.217Z,25.00
2018-06-03T08:08:36.135Z,25.10
2018-06-03T08:11:08.363Z,25.10
2018-06-03T08:13:38.676Z,25.20
2018-06-03T08:16:08.706Z,25.10
2018-06-03T08:18:38.773Z,25.10
2018-06-03T08:21:09.299Z,25.00
2018-06-03T08:23:39.168Z,24.80
2018-06-03T08:26:09.764Z,24.80
2018-06-03T08:28:39.720Z,24.90
2018-06-03T08:31:09.817Z,25.00
2018-06-03T08:33:39.507Z,25.00
2018-06-03T08:36:09.255Z,24.90
2018-06-03T08:38:38.988Z,24.90
2018-06-03T08:41:08.704Z,24.80
2018-06-03T08:43:38.892Z,24.70
2018-06-03T08:46:12.365Z,24.80
2018-06-03T08:48:51.779Z,25.00
2018-06-03T08:51:24.557Z,25.10
2018-06-03T08:53:57.630Z,25.20
2018-06-03T08:56:33.403Z,25.20
2018-06-03T08:59:03.509Z,25.10
2018-06-03T09:01:33.171Z,25.00
2018-06-03T09:04:02.859Z,24.90
2018-06-03T09:06:32.531Z,24.70
2018-06-03T09:09:02.250Z,24.40
2018-06-03T09:11:31.929Z,24.30
2018-06-03T09:14:01.636Z,24.40
2018-06-03T09:16:31.341Z,24.70
2018-06-03T09:19:01.053Z,25.00
2018-06-03T09:21:30.796Z,24.90
2018-06-03T09:24:00.546Z,24.70
2018-06-03T09:26:30.243Z,24.80
2018-06-03T09:28:59.963Z,24.80
2018-06-03T09:31:29.687Z,24.70
2018-06-03T09:33:59.418Z,24.70
2018-06-03T09:36:29.474Z,24.90
2018-06-03T09:38:59.208Z,25.20
2018-06-03T09:41:28.907Z,25.20
2018-06-03T09:43:58.630Z,25.20
2018-06-03T09:46:28.296Z,25.30
2018-06-03T09:48:58.011Z,25.30
2018-06-03T09:51:27.696Z,25.50
2018-06-03T09:53:57.477Z,25.60
2018-06-03T09:56:27.179Z,25.50
2018-06-03T09:58:56.955Z,25.50
2018-06-03T10:01:26.723Z,25.60
2018-06-03T10:03:56.648Z,25.60
2018-06-03T10:06:26.388Z,25.70
2018-06-03T10:08:56.104Z,25.60
2018-06-03T10:11:25.811Z,25.60
2018-06-03T10:13:55.579Z,25.60
2018-06-03T10:16:25.295Z,25.70
2018-06-03T10:18:55.038Z,25.90
2018-06-03T10:21:24.792Z,26.10
2018-06-03T10:23:54.491Z,25.90
2018-06-03T10:26:24.187Z,25.90
2018-06-03T10:28:54.021Z,26.00
2018-06-03T10:31:28.443Z,26.30
2018-06-03T10:33:58.183Z,26.30
2018-06-03T10:36:27.871Z,26.10
2018-06-03T10:38:57.609Z,25.90
2018-06-03T10:41:27.339Z,25.90
2018-06-03T10:43:57.124Z,25.90
2018-06-03T10:46:26.803Z,26.00
2018-06-03T10:48:56.540Z,25.90
2018-06-03T10:51:26.252Z,25.90
2018-06-03T10:53:56.000Z,25.90
2018-06-03T10:56:26.028Z,25.80
2018-06-03T10:58:55.748Z,25.90
2018-06-03T11:01:25.482Z,25.90
2018-06-03T11:03:55.215Z,25.90
2018-06-03T11:06:25.023Z,26.10
2018-06-03T11:08:54.707Z,26.20
2018-06-03T11:11:24.449Z,26.40
2018-06-03T11:13:54.171Z,26.50
2018-06-03T11:16:23.906Z,26.70
2018-06-03T11:18:53.606Z,26.60
2018-06-03T11:21:23.334Z,26.70
2018-06-03T11:23:53.063Z,26.60
2018-06-03T11:26:22.772Z,26.70
2018-06-03T11:28:52.491Z,26.70
2018-06-03T11:31:22.414Z,26.70
2018-06-03T11:33:52.121Z,26.70
2018-06-03T11:36:21.848Z,26.70
2018-06-03T11:38:51.540Z,26.80
2018-06-03T11:41:21.272Z,27.00
2018-06-03T11:43:51.002Z,27.20
2018-06-03T11:46:20.719Z,27.20
2018-06-03T11:48:50.434Z,27.30
2018-06-03T11:51:20.159Z,27.20
2018-06-03T11:53:49.972Z,27.20
2018-06-03T11:56:19.874Z,27.10
2018-06-03T11:58:52.652Z,27.10
2018-06-03T12:01:22.747Z,27.10
2018-06-03T12:03:52.432Z,26.90
2018-06-03T12:06:28.641Z,26.90
2018-06-03T12:08:58.340Z,26.90
2018-06-03T12:11:28.051Z,27.00
2018-06-03T12:13:57.788Z,27.00
2018-06-03T12:16:27.512Z,27.20
2018-06-03T12:18:57.235Z,27.20
2018-06-03T12:21:26.971Z,27.30
2018-06-03T12:23:56.694Z,27.30
2018-06-03T12:26:26.428Z,27.30
2018-06-03T12:31:25.473Z,27.30
2018-06-03T12:33:55.187Z,27.30
2018-06-03T12:36:24.935Z,27.30
2018-06-03T12:38:54.731Z,27.10
2018-06-03T12:41:24.479Z,27.10
2018-06-03T12:43:54.188Z,27.10
2018-06-03T12:46:23.943Z,27.10
2018-06-03T12:48:53.642Z,27.10
2018-06-03T12:51:23.376Z,27.00
2018-06-03T12:53:53.115Z,27.10
2018-06-03T12:56:22.828Z,27.10
2018-06-03T12:58:52.557Z,27.10
2018-06-03T13:01:22.255Z,27.00
2018-06-03T13:03:51.975Z,27.10
2018-06-03T13:06:21.721Z,27.10
2018-06-03T13:08:51.656Z,27.20
2018-06-03T13:11:21.351Z,27.20
2018-06-03T13:13:51.071Z,27.30
2018-06-03T13:16:20.799Z,27.30
2018-06-03T13:18:50.523Z,27.20
2018-06-03T13:21:20.246Z,27.20
2018-06-03T13:23:49.954Z,27.30
2018-06-03T13:26:19.674Z,27.20
2018-06-03T13:28:49.396Z,27.20
2018-06-03T13:31:19.079Z,27.20
2018-06-03T13:33:48.787Z,27.20
2018-06-03T13:36:18.474Z,27.20
2018-06-03T13:38:48.198Z,27.30
2018-06-03T13:41:18.056Z,27.40
2018-06-03T13:43:47.779Z,27.20
2018-06-03T13:46:17.488Z,27.10
2018-06-03T13:48:47.223Z,27.10
2018-06-03T13:51:16.951Z,27.00
2018-06-03T13:53:46.692Z,27.00
2018-06-03T13:56:16.391Z,26.90
2018-06-03T13:58:46.112Z,26.70
2018-06-03T14:01:15.879Z,26.70
2018-06-03T14:03:45.575Z,26.60
2018-06-03T14:06:15.337Z,26.70
2018-06-03T14:08:45.068Z,26.70
2018-06-03T14:11:14.795Z,26.70
2018-06-03T14:13:44.831Z,26.60
2018-06-03T14:16:14.687Z,26.70
2018-06-03T14:18:44.423Z,26.70
2018-06-03T14:21:14.163Z,26.80
2018-06-03T14:23:43.880Z,26.90
2018-06-03T14:26:13.564Z,27.10
2018-06-03T14:28:43.351Z,27.10
2018-06-03T14:31:13.051Z,27.10
2018-06-03T14:33:43.082Z,27.20
2018-06-03T14:36:12.819Z,27.30
2018-06-03T14:38:43.083Z,27.30
2018-06-03T14:41:12.836Z,27.40
2018-06-03T14:43:42.547Z,27.40
2018-06-03T14:46:12.474Z,27.50
2018-06-03T14:48:42.170Z,27.50
2018-06-03T14:51:11.883Z,27.40
2018-06-03T14:53:41.776Z,27.40
2018-06-03T14:56:11.508Z,27.20
2018-06-03T14:58:41.408Z,27.10
2018-06-03T15:01:11.108Z,27.00
2018-06-03T15:03:40.824Z,26.90
2018-06-03T15:06:10.545Z,26.90
2018-06-03T15:08:40.363Z,26.80
2018-06-03T15:11:10.072Z,26.70
2018-06-03T15:13:39.796Z,26.70
2018-06-03T15:16:09.744Z,26.70
2018-06-03T15:18:39.585Z,26.70
2018-06-03T15:21:09.363Z,26.60
2018-06-03T15:23:39.104Z,26.60
2018-06-03T15:26:08.864Z,26.50
2018-06-03T15:28:38.716Z,26.50
2018-06-03T15:31:12.887Z,26.60
2018-06-03T15:33:46.762Z,26.60
2018-06-03T15:36:20.901Z,26.50
2018-06-03T15:38:52.366Z,26.60
2018-06-03T15:41:24.032Z,26.60
2018-06-03T15:43:57.092Z,26.60
2018-06-03T15:46:27.954Z,26.50
2018-06-03T15:49:01.936Z,26.40
2018-06-03T15:51:33.155Z,26.40
2018-06-03T15:54:08.687Z,26.30
2018-06-03T15:56:42.992Z,26.20
2018-06-03T15:59:14.223Z,26.20
2018-06-03T16:01:44.735Z,26.30
2018-06-03T16:04:16.809Z,26.30
2018-06-03T16:06:47.060Z,26.30
2018-06-03T16:09:16.757Z,26.20
2018-06-03T16:11:46.451Z,26.30
2018-06-03T16:14:16.292Z,26.50
2018-06-03T16:16:45.996Z,26.60
2018-06-03T16:19:15.724Z,26.80
2018-06-03T16:24:14.832Z,26.90
2018-06-03T16:26:44.703Z,27.00
2018-06-03T16:29:14.447Z,27.00
2018-06-03T16:31:44.184Z,26.90
2018-06-03T16:34:14.032Z,26.80
2018-06-03T16:36:43.778Z,26.60
2018-06-03T16:39:13.555Z,26.50
2018-06-03T16:41:43.303Z,26.40
2018-06-03T16:44:13.053Z,26.30
2018-06-03T16:46:42.768Z,26.30
2018-06-03T16:49:12.531Z,26.20
2018-06-03T16:51:42.245Z,26.20
2018-06-03T16:56:41.260Z,26.20
2018-06-03T16:59:10.964Z,26.30
2018-06-03T17:01:40.711Z,26.30
2018-06-03T17:04:10.459Z,26.30
2018-06-03T17:06:40.206Z,26.30
2018-06-03T17:09:09.921Z,26.30
2018-06-03T17:11:39.668Z,26.20
2018-06-03T17:14:09.372Z,26.20
2018-06-03T17:16:39.196Z,26.10
2018-06-03T17:19:09.798Z,26.10
2018-06-03T17:21:40.657Z,26.10
2018-06-03T17:24:11.556Z,26.00
2018-06-03T17:26:41.330Z,26.00
2018-06-03T17:29:11.319Z,26.00
2018-06-03T17:31:41.803Z,25.90
2018-06-03T17:34:13.581Z,25.90
2018-06-03T17:36:44.579Z,25.90
2018-06-03T17:39:14.320Z,25.90
2018-06-03T17:41:44.100Z,25.90
2018-06-03T17:44:28.283Z,25.90
2018-06-03T17:46:59.275Z,26.00
2018-06-03T17:49:31.730Z,26.00
2018-06-03T17:52:01.420Z,26.00
2018-06-03T17:54:31.131Z,26.00
2018-06-03T17:57:01.020Z,25.90
2018-06-03T17:59:31.195Z,25.90
2018-06-03T18:02:00.587Z,25.80
2018-06-03T18:04:30.280Z,25.70
2018-06-03T18:07:00.000Z,25.60
2018-06-03T18:09:29.695Z,25.50
2018-06-03T18:12:00.393Z,25.50
2018-06-03T18:14:30.106Z,25.40
2018-06-03T18:16:59.890Z,25.30
2018-06-03T18:19:29.738Z,25.20
2018-06-03T18:21:59.408Z,25.10
2018-06-03T18:24:29.104Z,25.00
2018-06-03T18:26:58.767Z,25.00
2018-06-03T18:29:28.473Z,24.90
2018-06-03T18:31:58.171Z,24.90
2018-06-03T18:34:27.916Z,24.80
2018-06-03T18:36:57.613Z,24.70
2018-06-03T18:39:27.575Z,24.70
2018-06-03T18:41:57.243Z,24.50
2018-06-03T18:44:26.976Z,24.50
2018-06-03T18:46:56.653Z,24.40
2018-06-03T18:49:26.372Z,24.30
2018-06-03T18:51:56.056Z,24.20
2018-06-03T18:54:25.816Z,24.20
2018-06-03T18:56:55.531Z,24.20
2018-06-03T18:59:25.365Z,24.10
2018-06-03T19:01:55.307Z,24.00
2018-06-03T19:04:25.039Z,23.90
2018-06-03T19:06:54.868Z,23.80
2018-06-03T19:09:24.592Z,23.80
2018-06-03T19:11:54.259Z,23.70
2018-06-03T19:14:23.974Z,23.60
2018-06-03T19:16:53.924Z,23.60
2018-06-03T19:19:23.704Z,23.50
2018-06-03T19:21:53.562Z,23.50
2018-06-03T19:24:23.954Z,23.40
2018-06-03T19:26:53.619Z,23.40
2018-06-03T19:29:27.588Z,23.30
2018-06-03T19:31:57.606Z,23.30
2018-06-03T19:34:27.379Z,23.20
2018-06-03T19:36:57.284Z,23.00
2018-06-03T19:39:27.143Z,22.90
2018-06-03T19:41:56.814Z,22.90
2018-06-03T19:44:26.636Z,22.80
2018-06-03T19:46:56.506Z,22.80
2018-06-03T19:49:26.228Z,22.80
2018-06-03T19:51:56.007Z,22.80
2018-06-03T19:54:25.873Z,22.60
2018-06-03T19:56:55.763Z,22.50
2018-06-03T19:59:25.515Z,22.40
2018-06-03T20:01:55.432Z,22.40
2018-06-03T20:04:25.130Z,22.30
2018-06-03T20:06:54.903Z,22.20
2018-06-03T20:09:24.611Z,22.10
2018-06-03T20:14:23.787Z,22.00
2018-06-03T20:19:23.456Z,22.00
2018-06-03T20:21:53.298Z,22.00
2018-06-03T20:24:23.232Z,22.00
2018-06-03T20:26:53.180Z,22.00
2018-06-03T20:29:23.058Z,21.90
2018-06-03T20:31:52.827Z,21.90
2018-06-03T20:34:22.506Z,21.80
2018-06-03T20:36:52.247Z,21.70
2018-06-03T20:39:21.914Z,21.60
2018-06-03T20:41:51.655Z,21.60
2018-06-03T20:44:21.347Z,21.50
2018-06-03T20:46:51.055Z,21.50
2018-06-03T20:49:21.063Z,21.50
2018-06-03T20:51:50.724Z,21.40
2018-06-03T20:54:20.430Z,21.40
2018-06-03T20:56:50.136Z,21.30
2018-06-03T20:59:19.840Z,21.30
2018-06-03T21:01:49.653Z,21.30
2018-06-03T21:04:19.631Z,21.30
2018-06-03T21:06:49.389Z,21.30
2018-06-03T21:09:19.089Z,21.20
2018-06-03T21:11:48.792Z,21.20
2018-06-03T21:14:18.482Z,21.10
2018-06-03T21:16:48.220Z,21.10
2018-06-03T21:19:17.919Z,21.10
2018-06-03T21:21:47.599Z,21.00
2018-06-03T21:24:17.310Z,21.00
2018-06-03T21:26:47.282Z,21.00
2018-06-03T21:29:17.089Z,20.90
2018-06-03T21:31:47.294Z,20.80
2018-06-03T21:34:17.759Z,20.80
2018-06-03T21:36:48.488Z,20.70
2018-06-03T21:39:19.660Z,20.70
2018-06-03T21:41:49.497Z,20.60
2018-06-03T21:44:20.100Z,20.60
2018-06-03T21:46:51.678Z,20.50
2018-06-03T21:49:22.258Z,20.50
2018-06-03T21:51:52.498Z,20.50
2018-06-03T21:54:23.051Z,20.40
2018-06-03T21:56:53.932Z,20.30
2018-06-03T21:59:23.781Z,20.30
2018-06-03T22:01:54.373Z,20.30
2018-06-03T22:04:24.423Z,20.30
2018-06-03T22:06:54.696Z,20.30
2018-06-03T22:09:28.575Z,20.20
2018-06-03T22:11:58.778Z,20.10
2018-06-03T22:14:28.577Z,20.00
2018-06-03T22:16:58.272Z,20.00
2018-06-03T22:19:28.638Z,19.90
2018-06-03T22:21:59.345Z,19.90
2018-06-03T22:24:30.079Z,19.80
2018-06-03T22:27:02.045Z,19.80
2018-06-03T22:29:32.500Z,19.70
2018-06-03T22:32:02.244Z,19.60
2018-06-03T22:34:31.943Z,19.50
2018-06-03T22:37:01.667Z,19.40
2018-06-03T22:39:31.339Z,19.30
2018-06-03T22:42:01.534Z,19.20
2018-06-03T22:44:31.499Z,19.20
2018-06-03T22:47:01.184Z,19.30
2018-06-03T22:49:30.851Z,19.30
2018-06-03T22:52:00.641Z,19.30
2018-06-03T22:54:30.437Z,19.20
2018-06-03T22:57:42.361Z,19.20
2018-06-03T23:00:19.084Z,19.20
2018-06-03T23:03:19.661Z,19.10
2018-06-03T23:05:49.395Z,19.10
2018-06-03T23:08:19.074Z,19.10
2018-06-03T23:10:48.790Z,19.10
2018-06-03T23:13:18.459Z,19.10
2018-06-03T23:15:48.174Z,19.00
2018-06-03T23:18:17.847Z,19.00
2018-06-03T23:20:47.543Z,19.00
2018-06-03T23:23:17.228Z,19.00
2018-06-03T23:25:46.911Z,19.00
2018-06-03T23:28:16.584Z,18.90
2018-06-03T23:30:46.255Z,18.80
2018-06-03T23:33:15.914Z,18.80
2018-06-03T23:35:45.612Z,18.70
2018-06-03T23:38:15.306Z,18.70
2018-06-03T23:40:45.131Z,18.80
2018-06-03T23:43:14.798Z,18.70
2018-06-03T23:45:50.123Z,18.70
2018-06-03T23:48:19.803Z,18.70
2018-06-03T23:50:49.491Z,18.70
2018-06-03T23:53:19.197Z,18.70
2018-06-03T23:55:48.871Z,18.60
2018-06-03T23:58:18.559Z,18.60
